Nanwalek, Alaska
Current Conditions -  °F | °C
As of 9:53 PM on Friday 24 Oct 2014 (Local Time) from PAHO Reporting Station
Few Clouds Few Clouds  
Wind Chill: 40°   Ceiling: Unl
Heat Index: 40°   Visibility: 10mi
Dew Point: 25°   Wind: 0mph
Humidity: 55%   Direction: NA
Pressure: 29.88"   Gusts: NA
Location:  59.7153°N, 150.773°W
Report Text: PAHO 250553Z AUTO 00000KT 10SM FEW050 04/M04 A2988 RMK SLP121 T00441039 10072 20039 51010 TSNO VIA AUTODIAL
Loading
Personal Weather Stations






























Interactive Weather Map
Tropical Storm Tracking
New forecast layout! Learn more

10-Day Weather Forecast

Advertisements
Track Severe Weather on mobile